Time;durP1;ratioP1;P1;durP2;ratioP2;P2;SDS_P1;SDS_P2;PMS_P1;PMS_P2;Temp;Humidity;BMP_temperature;BMP_pressure;BME280_temperature;BME280_humidity;BME280_pressure;Samples;Min_cycle;Max_cycle;Signal;HPM_P1;HPM_P2
2022/09/21 00:00:30;;;;;;;4.90;3.70;;;;;;;19.23;51.13;101380.56;5017760;28;20041;-85
2022/09/21 00:02:57;;;;;;;4.53;3.63;;;;;;;19.72;50.77;101458.78;5002530;28;20033;-85
2022/09/21 00:05:23;;;;;;;5.13;3.92;;;;;;;19.59;50.85;101436.31;4987965;28;20040;-85
2022/09/21 00:07:49;;;;;;;4.70;3.63;;;;;;;19.64;51.06;101447.97;5012026;28;20100;-85
2022/09/21 00:10:15;;;;;;;4.93;3.75;;;;;;;19.68;50.85;101449.84;4995384;28;20243;-84
2022/09/21 00:12:41;;;;;;;5.68;3.55;;;;;;;19.67;51.12;101461.28;5012592;28;20041;-85
2022/09/21 00:15:09;;;;;;;3.53;3.22;;;;;;;19.66;51.32;101467.44;4996858;28;20025;-85
2022/09/21 00:17:36;;;;;;;4.50;3.50;;;;;;;19.63;51.18;101462.03;5024766;28;20044;-85
2022/09/21 00:20:04;;;;;;;5.07;3.28;;;;;;;19.29;51.25;101415.16;5020846;28;20035;-85
2022/09/21 00:22:31;;;;;;;6.20;3.30;;;;;;;19.37;51.29;101421.59;5011049;28;20183;-84
2022/09/21 00:24:56;;;;;;;4.40;3.10;;;;;;;19.60;51.49;101450.47;5030760;28;20235;-85
2022/09/21 00:27:28;;;;;;;3.33;2.67;;;;;;;19.49;51.16;101437.84;5028697;28;20036;-85
2022/09/21 00:29:55;;;;;;;3.30;2.70;;;;;;;19.41;51.48;101431.41;5030238;28;20108;-85
2022/09/21 00:32:21;;;;;;;3.67;3.00;;;;;;;19.59;51.27;101446.03;5028356;28;20048;-84
2022/09/21 00:34:46;;;;;;;4.32;3.08;;;;;;;19.61;51.33;101458.47;5031993;28;20033;-83
2022/09/21 00:37:12;;;;;;;4.28;3.15;;;;;;;19.47;51.29;101431.59;5029862;28;20105;-84
2022/09/21 00:39:37;;;;;;;4.00;2.70;;;;;;;19.61;51.07;101454.91;5017115;28;20037;-84
2022/09/21 00:42:18;;;;;;;3.55;2.70;;;;;;;19.59;51.09;101452.22;5010778;28;20527;-83
2022/09/21 00:44:44;;;;;;;4.15;3.10;;;;;;;19.43;51.42;101435.00;5015948;28;20030;-84
2022/09/21 00:47:13;;;;;;;3.67;2.72;;;;;;;19.47;50.98;101438.63;5011548;28;20032;-84
2022/09/21 00:49:41;;;;;;;3.22;2.45;;;;;;;19.46;51.31;101440.38;5030966;28;20114;-84
2022/09/21 00:52:07;;;;;;;4.47;2.55;;;;;;;19.07;51.35;101373.91;5010793;28;20048;-85
2022/09/21 00:54:40;;;;;;;3.10;2.78;;;;;;;19.49;51.60;101443.13;5030831;28;20030;-84
2022/09/21 00:57:06;;;;;;;3.83;2.80;;;;;;;19.57;51.17;101447.72;5027261;28;20033;-85
2022/09/21 00:59:34;;;;;;;3.30;2.50;;;;;;;19.48;51.16;101432.47;5018738;28;20022;-85
2022/09/21 01:02:00;;;;;;;3.65;2.47;;;;;;;19.51;51.46;101441.44;5015396;28;20033;-83
2022/09/21 01:04:27;;;;;;;4.90;2.65;;;;;;;19.46;51.18;101429.78;5030798;28;20415;-85
2022/09/21 01:06:54;;;;;;;2.97;2.35;;;;;;;19.46;51.11;101420.94;5011030;28;20029;-84
2022/09/21 01:09:20;;;;;;;2.90;2.40;;;;;;;19.55;50.98;101437.09;5022134;28;20034;-85
2022/09/21 01:12:09;;;;;;;2.50;2.00;;;;;;;19.52;51.10;101434.38;5011848;28;20026;-85
2022/09/21 01:14:54;;;;;;;2.53;2.33;;;;;;;19.19;50.85;101384.88;5018052;28;20413;-86
2022/09/21 01:17:47;;;;;;;4.20;2.40;;;;;;;19.48;51.34;101435.13;5028378;28;20119;-86
2022/09/21 01:20:35;;;;;;;2.95;2.05;;;;;;;19.47;51.22;101428.03;5044268;28;20026;-85
2022/09/21 01:23:49;;;;;;;2.28;2.08;;;;;;;19.47;51.35;101435.97;5027382;28;20076;-85
2022/09/21 01:26:42;;;;;;;2.05;1.85;;;;;;;19.43;50.95;101428.78;4970829;28;20038;-85
2022/09/21 01:29:19;;;;;;;2.22;2.03;;;;;;;19.44;51.01;101436.78;4965565;28;20050;-86
2022/09/21 01:32:12;;;;;;;2.42;1.80;;;;;;;19.42;51.28;101429.66;5019106;28;20056;-85
2022/09/21 01:34:59;;;;;;;2.20;1.90;;;;;;;19.45;51.43;101427.09;5037690;28;20538;-85
2022/09/21 01:37:48;;;;;;;2.33;2.10;;;;;;;19.44;51.29;101433.25;5026579;28;20029;-87
2022/09/21 01:40:23;;;;;;;1.98;1.88;;;;;;;19.27;51.36;101399.22;5019712;28;20042;-85
2022/09/21 01:42:50;;;;;;;2.47;1.98;;;;;;;19.42;51.07;101429.66;5013317;28;20116;-85
2022/09/21 01:45:19;;;;;;;1.92;1.70;;;;;;;19.38;51.46;101423.38;5014791;28;20657;-85
2022/09/21 01:47:46;;;;;;;2.83;1.90;;;;;;;19.38;51.16;101428.66;5013280;28;20049;-84
2022/09/21 01:50:13;;;;;;;2.33;2.00;;;;;;;19.34;51.23;101408.25;5009768;28;20029;-85
2022/09/21 01:52:47;;;;;;;3.47;1.88;;;;;;;19.24;51.68;101382.34;5009314;28;20069;-85
2022/09/21 01:55:19;;;;;;;1.80;1.70;;;;;;;19.28;51.51;101400.13;5031562;28;20049;-85
2022/09/21 01:57:55;;;;;;;1.83;1.73;;;;;;;19.25;51.23;101400.94;5026122;28;20028;-84
2022/09/21 02:00:21;;;;;;;1.92;1.75;;;;;;;19.39;51.48;101413.66;5031384;28;20469;-85
2022/09/21 02:02:50;;;;;;;;;;;;;;;19.45;51.15;101413.84;5014292;28;20040;-85
2022/09/21 02:05:20;;;;;;;1.70;1.60;;;;;;;19.37;51.56;101415.38;5015570;28;19979;-86
2022/09/21 02:07:53;;;;;;;1.80;1.70;;;;;;;19.24;51.38;101388.56;5021128;28;20025;-85
2022/09/21 02:10:23;;;;;;;2.15;1.48;;;;;;;19.35;51.41;101420.66;5013787;28;20021;-83
2022/09/21 02:12:53;;;;;;;2.05;1.73;;;;;;;19.22;51.47;101402.59;5041643;28;20001;-85
2022/09/21 02:15:30;;;;;;;1.60;1.50;;;;;;;19.12;51.15;101378.50;5029637;28;20025;-86
2022/09/21 02:18:08;;;;;;;1.65;1.55;;;;;;;19.36;51.50;101426.84;5014781;28;20017;-84
2022/09/21 02:20:48;;;;;;;2.08;1.58;;;;;;;19.33;51.46;101422.34;4996809;28;20041;-84
2022/09/21 02:23:22;;;;;;;3.10;1.70;;;;;;;19.15;51.35;101385.63;5014685;28;20143;-86
2022/09/21 02:25:53;;;;;;;1.88;1.55;;;;;;;19.31;51.69;101424.06;5013178;28;20030;-85
2022/09/21 02:28:40;;;;;;;1.42;1.33;;;;;;;19.33;51.58;101420.59;5013582;28;20025;-86
2022/09/21 02:31:37;;;;;;;2.00;1.60;;;;;;;19.31;51.49;101422.28;5013723;28;20130;-85
2022/09/21 02:34:44;;;;;;;2.30;1.50;;;;;;;19.36;51.35;101427.72;4985988;28;20106;-85
2022/09/21 02:37:19;;;;;;;2.25;1.40;;;;;;;19.32;51.34;101429.41;4956878;28;20290;-86
2022/09/21 02:39:49;;;;;;;1.38;1.27;;;;;;;19.29;51.37;101426.66;5004185;28;20041;-85
2022/09/21 02:42:27;;;;;;;1.83;1.40;;;;;;;19.18;51.37;101398.97;5033634;28;20493;-86
2022/09/21 02:45:11;;;;;;;1.90;1.45;;;;;;;19.33;51.41;101415.28;5015875;28;20029;-85
2022/09/21 02:48:02;;;;;;;1.45;1.35;;;;;;;19.27;51.19;101412.47;5028686;28;20029;-85
2022/09/21 02:50:38;;;;;;;1.40;1.30;;;;;;;19.07;51.32;101382.78;5003538;28;20052;-85
2022/09/21 02:53:05;;;;;;;1.35;1.25;;;;;;;19.13;51.07;101395.28;5013423;28;20120;-85
2022/09/21 02:55:32;;;;;;;1.60;1.40;;;;;;;19.26;51.29;101421.28;5031631;28;20084;-85
2022/09/21 02:58:00;;;;;;;1.38;1.27;;;;;;;18.94;51.37;101372.66;5012294;28;20033;-85
2022/09/21 03:00:26;;;;;;;1.40;1.30;;;;;;;19.05;51.43;101387.13;5014332;28;20018;-84
2022/09/21 03:02:52;;;;;;;1.35;1.20;;;;;;;19.26;51.08;101416.00;5027417;28;20407;-85
2022/09/21 03:05:17;;;;;;;1.92;1.40;;;;;;;19.22;51.49;101413.19;5017452;28;20501;-85
2022/09/21 03:07:43;;;;;;;1.80;1.60;;;;;;;19.26;51.16;101417.72;5029992;28;20045;-85
2022/09/21 03:10:09;;;;;;;1.88;1.60;;;;;;;19.26;51.24;101415.06;5030841;28;20033;-86
2022/09/21 03:12:35;;;;;;;1.52;1.42;;;;;;;18.75;51.41;101343.84;5037570;28;20465;-85
2022/09/21 03:15:01;;;;;;;1.33;1.20;;;;;;;19.15;51.33;101403.28;5030087;28;20036;-84
2022/09/21 03:17:27;;;;;;;1.40;1.30;;;;;;;19.09;51.38;101393.38;5034478;28;20025;-85
2022/09/21 03:19:53;;;;;;;1.58;1.48;;;;;;;19.13;51.54;101408.50;5006883;28;20088;-87
2022/09/21 03:22:21;;;;;;;1.55;1.27;;;;;;;19.00;51.40;101383.44;5034983;28;20037;-87
2022/09/21 03:24:47;;;;;;;1.67;1.58;;;;;;;18.92;51.41;101372.66;5013713;28;20053;-86
2022/09/21 03:27:14;;;;;;;1.10;1.10;;;;;;;19.14;51.23;101401.50;5031299;28;20052;-86
2022/09/21 03:29:40;;;;;;;2.15;1.13;;;;;;;18.91;51.41;101364.66;5014280;28;20108;-85
2022/09/21 03:32:05;;;;;;;1.50;1.40;;;;;;;19.24;51.31;101414.13;5032248;28;20107;-85
2022/09/21 03:34:33;;;;;;;1.45;1.35;;;;;;;19.08;51.40;101394.25;5032002;28;20028;-85
2022/09/21 03:37:00;;;;;;;1.02;1.02;;;;;;;18.86;51.38;101363.63;5006211;28;20038;-86
2022/09/21 03:39:25;;;;;;;1.75;1.42;;;;;;;19.09;51.43;101393.38;5031775;28;20087;-85
2022/09/21 03:41:54;;;;;;;1.23;1.15;;;;;;;18.71;51.45;101330.53;5031842;28;20116;-85
2022/09/21 03:44:19;;;;;;;1.40;1.30;;;;;;;18.98;51.53;101386.91;5016342;28;20384;-85
2022/09/21 03:46:45;;;;;;;1.63;1.08;;;;;;;19.15;51.47;101404.16;5043641;28;20036;-84
2022/09/21 03:49:10;;;;;;;1.50;1.40;;;;;;;19.04;51.48;101401.19;5031910;28;20053;-85
2022/09/21 03:51:36;;;;;;;1.30;1.20;;;;;;;19.14;51.52;101422.69;5017639;28;20039;-85
2022/09/21 03:54:02;;;;;;;;;;;;;;;19.13;51.44;101429.69;5023589;28;20069;-87
2022/09/21 03:56:27;;;;;;;1.33;1.23;;;;;;;18.76;51.45;101367.69;5012029;28;20287;-86
2022/09/21 03:58:53;;;;;;;2.20;1.25;;;;;;;18.88;51.52;101391.00;5013903;28;20025;-87
2022/09/21 04:01:19;;;;;;;1.40;1.30;;;;;;;18.97;51.30;101406.28;5030968;28;20061;-87
2022/09/21 04:03:44;;;;;;;1.27;1.20;;;;;;;18.62;51.37;101353.16;5013774;28;20487;-86
2022/09/21 04:06:11;;;;;;;1.50;1.40;;;;;;;19.05;51.15;101428.56;5030839;28;20079;-86
2022/09/21 04:08:37;;;;;;;1.40;1.10;;;;;;;18.84;51.44;101390.03;5017434;28;20478;-85
2022/09/21 04:11:12;;;;;;;;;;;;;;;19.07;51.56;101434.81;5013456;28;20112;-86
2022/09/21 04:13:38;;;;;;;1.40;1.13;;;;;;;18.95;51.46;101415.94;5030506;28;19971;-85
2022/09/21 04:16:04;;;;;;;1.42;1.33;;;;;;;18.91;51.56;101399.06;5031411;28;20025;-85
2022/09/21 04:18:31;;;;;;;1.50;1.40;;;;;;;18.96;51.31;101420.38;5013335;28;20038;-83
2022/09/21 04:20:57;;;;;;;1.50;1.40;;;;;;;18.95;51.63;101423.88;5030741;28;20029;-83
2022/09/21 04:23:22;;;;;;;1.38;1.27;;;;;;;18.85;51.53;101405.06;5030582;28;20026;-83
2022/09/21 04:25:51;;;;;;;1.58;1.45;;;;;;;19.05;51.43;101432.13;5013356;28;20403;-83
2022/09/21 04:28:17;;;;;;;1.50;1.38;;;;;;;18.99;51.45;101423.13;5011118;28;20077;-83
2022/09/21 04:30:42;;;;;;;1.40;1.30;;;;;;;19.07;51.37;101433.09;5027042;28;20049;-84
2022/09/21 04:33:08;;;;;;;2.35;1.50;;;;;;;18.95;51.00;101424.75;5013531;28;20091;-83
2022/09/21 04:35:33;;;;;;;1.40;1.30;;;;;;;18.74;51.30;101389.69;5030242;28;20018;-84
2022/09/21 04:37:59;;;;;;;1.70;1.60;;;;;;;18.89;50.57;101416.63;5031117;28;20028;-85
2022/09/21 04:40:25;;;;;;;1.48;1.38;;;;;;;18.90;51.27;101422.00;5029282;28;20030;-85
2022/09/21 04:42:54;;;;;;;2.55;1.80;;;;;;;18.76;51.03;101390.63;5007949;28;20522;-85
2022/09/21 04:45:23;;;;;;;1.33;1.23;;;;;;;18.99;51.41;101437.25;5032135;28;20430;-85
2022/09/21 04:47:48;;;;;;;1.55;1.45;;;;;;;18.98;51.45;101432.78;5030587;28;20503;-85
2022/09/21 04:50:14;;;;;;;1.98;1.60;;;;;;;18.80;51.22;101404.03;5030478;28;20048;-85
2022/09/21 04:52:40;;;;;;;1.67;1.45;;;;;;;18.95;51.24;101422.13;5028292;28;20060;-85
2022/09/21 04:55:06;;;;;;;2.15;1.60;;;;;;;18.70;51.20;101372.81;5012399;28;20562;-82
2022/09/21 04:57:32;;;;;;;1.83;1.40;;;;;;;18.90;51.45;101408.75;5020795;28;20482;-84
2022/09/21 04:59:58;;;;;;;2.22;1.52;;;;;;;18.86;51.35;101403.31;5012215;28;20033;-86
2022/09/21 05:02:24;;;;;;;3.08;1.40;;;;;;;18.96;51.61;101417.72;5006376;28;20026;-87
2022/09/21 05:04:49;;;;;;;1.63;1.52;;;;;;;18.82;51.37;101399.69;4993631;28;20127;-85
2022/09/21 05:07:15;;;;;;;1.85;1.67;;;;;;;18.94;50.93;101422.06;5013684;28;20479;-86
2022/09/21 05:12:25;;;;;;;1.48;1.27;;;;;;;18.89;51.51;101409.59;5013541;28;20044;-86
2022/09/21 05:14:50;;;;;;;2.95;1.42;;;;;;;18.90;51.29;101414.03;5030475;28;20025;-86
2022/09/21 05:17:16;;;;;;;1.83;1.60;;;;;;;18.84;51.43;101410.31;5005259;28;20117;-86
2022/09/21 05:19:41;;;;;;;2.53;1.67;;;;;;;18.80;51.54;101404.03;5032222;28;20100;-85
2022/09/21 05:22:07;;;;;;;1.98;1.40;;;;;;;18.65;51.40;101383.25;5038005;28;20129;-86
2022/09/21 05:24:33;;;;;;;2.88;1.58;;;;;;;18.86;51.31;101414.81;5016307;28;20026;-85
2022/09/21 05:26:58;;;;;;;1.90;1.50;;;;;;;18.88;51.29;101425.41;5003909;28;20040;-84
2022/09/21 05:29:24;;;;;;;1.55;1.33;;;;;;;18.91;51.31;101423.75;5026115;28;20022;-82
2022/09/21 05:32:02;;;;;;;2.20;1.38;;;;;;;18.79;51.51;101407.50;5033488;28;20063;-83
2022/09/21 05:34:49;;;;;;;2.08;1.33;;;;;;;18.94;51.29;101432.66;5029978;28;20109;-83
2022/09/21 05:37:23;;;;;;;2.92;1.35;;;;;;;18.91;51.37;101433.47;5026877;28;20410;-83
2022/09/21 05:39:49;;;;;;;2.38;1.67;;;;;;;18.84;51.43;101402.38;5031360;28;20525;-83
2022/09/21 05:42:15;;;;;;;1.77;1.60;;;;;;;18.84;51.49;101411.22;5029023;28;20022;-81
2022/09/21 05:44:41;;;;;;;2.50;1.40;;;;;;;18.87;51.63;101420.97;5034121;28;20025;-82
2022/09/21 05:47:21;;;;;;;3.03;1.55;;;;;;;18.97;51.24;101416.88;5031806;28;20029;-82
2022/09/21 05:50:04;;;;;;;2.42;1.67;;;;;;;18.91;51.55;101417.59;5026976;28;20036;-82
2022/09/21 05:52:57;;;;;;;2.63;1.60;;;;;;;18.87;51.64;101411.28;5001954;28;20058;-82
2022/09/21 05:55:58;;;;;;;3.15;1.77;;;;;;;18.87;51.48;101415.69;5026763;28;20608;-82
2022/09/21 05:58:39;;;;;;;2.78;1.77;;;;;;;18.88;51.49;101405.16;5000843;28;20436;-82
2022/09/21 06:01:18;;;;;;;1.85;1.60;;;;;;;18.87;51.77;101411.28;5032692;28;20025;-81
2022/09/21 06:03:47;;;;;;;1.92;1.30;;;;;;;18.82;51.66;101404.09;4998286;28;20026;-81
2022/09/21 06:06:13;;;;;;;2.88;1.70;;;;;;;18.84;51.62;101408.56;5000430;28;20383;-81
2022/09/21 06:08:38;;;;;;;2.42;1.80;;;;;;;18.84;51.62;101405.03;5033621;28;20033;-82
2022/09/21 06:11:04;;;;;;;2.05;1.40;;;;;;;18.80;51.76;101417.25;5033368;28;20453;-82
2022/09/21 06:13:30;;;;;;;1.92;1.50;;;;;;;18.86;51.72;101417.44;5028755;28;20487;-81
2022/09/21 06:15:55;;;;;;;2.08;1.50;;;;;;;18.64;51.93;101386.72;5033256;28;20112;-84
2022/09/21 06:18:21;;;;;;;1.38;1.25;;;;;;;18.81;51.70;101405.81;5032560;28;20480;-84
2022/09/21 06:20:47;;;;;;;2.97;1.58;;;;;;;18.59;51.76;101388.34;5033170;28;20025;-83
2022/09/21 06:23:13;;;;;;;1.88;1.65;;;;;;;18.77;51.99;101411.81;5032320;28;20021;-84
2022/09/21 06:25:39;;;;;;;1.50;1.40;;;;;;;18.77;51.80;101408.28;4997017;28;20041;-85
2022/09/21 06:28:10;;;;;;;2.80;1.70;;;;;;;18.78;51.69;101412.75;5006733;28;20026;-85
2022/09/21 06:30:36;;;;;;;1.60;1.48;;;;;;;18.56;52.11;101413.78;5031111;28;20810;-84
2022/09/21 06:33:03;;;;;;;1.67;1.50;;;;;;;18.40;52.32;101381.59;5040687;28;20017;-85
2022/09/21 06:35:29;;;;;;;1.27;1.17;;;;;;;18.73;51.97;101423.16;5010365;28;20041;-84
2022/09/21 06:37:59;;;;;;;1.38;1.27;;;;;;;18.71;51.88;101432.78;5032857;28;20033;-85
2022/09/21 06:40:26;;;;;;;1.88;1.40;;;;;;;18.52;51.67;101413.72;5032985;28;20021;-84
2022/09/21 06:42:59;;;;;;;1.40;1.30;;;;;;;18.57;52.10;101413.84;5032576;28;20411;-83
2022/09/21 06:45:25;;;;;;;2.50;1.30;;;;;;;18.72;51.88;101434.59;4999145;28;20029;-83
2022/09/21 06:47:51;;;;;;;3.33;1.17;;;;;;;18.52;52.13;101403.13;5028744;28;20017;-82
2022/09/21 06:50:17;;;;;;;1.58;1.10;;;;;;;18.69;51.92;101431.88;5015388;28;20021;-82
2022/09/21 06:52:43;;;;;;;1.90;1.40;;;;;;;18.67;52.12;101433.56;5020396;28;20531;-82
2022/09/21 06:55:09;;;;;;;1.90;1.23;;;;;;;18.63;52.16;101429.94;5015266;28;20022;-82
2022/09/21 06:57:37;;;;;;;2.80;1.42;;;;;;;18.57;52.05;101420.91;5032908;28;20060;-83
2022/09/21 07:00:04;;;;;;;1.45;1.35;;;;;;;18.73;51.88;101433.75;5031749;28;20021;-83
2022/09/21 07:02:30;;;;;;;1.35;1.25;;;;;;;18.66;52.10;101407.94;5014991;28;20084;-83
2022/09/21 07:04:57;;;;;;;1.42;1.30;;;;;;;18.73;51.95;101412.56;5032206;28;20025;-83
2022/09/21 07:07:23;;;;;;;1.77;1.20;;;;;;;18.65;52.46;101432.63;5032793;28;20025;-83
2022/09/21 07:09:49;;;;;;;;;;;;;;;18.65;52.18;101429.97;5029434;28;20030;-83
2022/09/21 07:12:15;;;;;;;3.38;1.33;;;;;;;18.58;52.37;101422.69;5033197;28;20289;-83
2022/09/21 07:14:44;;;;;;;1.67;1.30;;;;;;;18.54;52.31;101416.38;5032176;28;20510;-83
2022/09/21 07:17:09;;;;;;;1.20;1.10;;;;;;;18.59;52.28;101398.94;5019281;28;20048;-83
2022/09/21 07:19:35;;;;;;;3.83;1.20;;;;;;;18.58;52.47;101426.22;5033024;28;20444;-84
2022/09/21 07:22:01;;;;;;;1.20;1.10;;;;;;;18.50;52.71;101415.41;5032242;28;20402;-83
2022/09/21 07:24:27;;;;;;;1.63;1.05;;;;;;;18.50;52.22;101410.13;5032883;28;20033;-84
2022/09/21 07:26:53;;;;;;;3.25;1.40;;;;;;;18.59;52.39;101427.13;5029469;28;20083;-83
2022/09/21 07:29:18;;;;;;;1.65;1.38;;;;;;;18.47;52.41;101409.13;5031974;28;20047;-83
2022/09/21 07:31:44;;;;;;;1.70;1.25;;;;;;;18.60;52.48;101424.53;5031568;28;20116;-83
2022/09/21 07:34:10;;;;;;;2.33;1.02;;;;;;;18.54;52.69;101426.97;5031912;28;20044;-83
2022/09/21 07:36:36;;;;;;;1.70;1.10;;;;;;;18.51;52.67;101416.31;5014432;28;20025;-83
2022/09/21 07:39:02;;;;;;;1.63;1.05;;;;;;;18.50;52.96;101420.69;5013999;28;20030;-84
2022/09/21 07:41:27;;;;;;;1.67;1.08;;;;;;;18.41;52.64;101401.88;5030998;28;20484;-83
2022/09/21 07:43:53;;;;;;;1.60;1.40;;;;;;;18.42;52.86;101400.16;5029950;28;20227;-83
2022/09/21 07:46:19;;;;;;;1.48;1.25;;;;;;;18.43;53.10;101408.09;5030939;28;20057;-83
2022/09/21 07:48:45;;;;;;;1.08;1.00;;;;;;;18.39;52.74;101394.75;5013431;28;20403;-83
2022/09/21 07:51:12;;;;;;;1.42;1.10;;;;;;;18.50;52.66;101415.41;5013623;28;20038;-83
2022/09/21 07:53:39;;;;;;;1.15;1.05;;;;;;;18.47;52.89;101420.59;5031675;28;20518;-83
2022/09/21 07:56:11;;;;;;;0.77;0.77;;;;;;;18.47;52.66;101414.41;5031372;28;20033;-82
2022/09/21 08:01:22;;;;;;;1.20;1.10;;;;;;;18.27;52.55;101374.13;5003616;28;20401;-82
2022/09/21 08:03:48;;;;;;;;;;;;;;;18.50;52.96;101417.16;5031573;28;20030;-83
2022/09/21 08:06:13;;;;;;;1.20;1.05;;;;;;;18.40;52.54;101397.44;5013504;28;19917;-84
2022/09/21 08:08:40;;;;;;;1.05;0.93;;;;;;;18.29;53.11;101383.00;5015954;28;20035;-83
2022/09/21 08:11:06;;;;;;;1.20;1.10;;;;;;;18.50;52.62;101415.41;5027886;28;20040;-83
2022/09/21 08:13:32;;;;;;;1.13;1.10;;;;;;;18.50;52.54;101407.47;5026069;28;20031;-83
2022/09/21 08:15:59;;;;;;;1.05;0.95;;;;;;;18.50;52.58;101410.13;5027878;28;20026;-84
2022/09/21 08:18:24;;;;;;;1.77;1.10;;;;;;;18.45;52.44;101405.53;5002859;28;20399;-82
2022/09/21 08:20:58;;;;;;;1.00;0.90;;;;;;;18.41;52.37;101393.06;5023729;28;20034;-83
2022/09/21 08:23:27;;;;;;;1.05;0.88;;;;;;;18.49;52.38;101418.88;5027161;28;20091;-83
2022/09/21 08:26:07;;;;;;;1.10;1.00;;;;;;;18.27;52.47;101377.66;5026710;28;20033;-83
2022/09/21 08:28:35;;;;;;;0.93;0.70;;;;;;;18.46;52.33;101407.34;5010077;28;20021;-83
2022/09/21 08:31:04;;;;;;;1.08;0.98;;;;;;;18.52;52.48;101415.47;5030746;28;20057;-82
2022/09/21 08:33:31;;;;;;;0.90;0.88;;;;;;;18.24;52.24;101366.06;5017119;28;20506;-83
2022/09/21 08:35:58;;;;;;;1.75;1.10;;;;;;;18.54;52.63;101416.38;5023032;28;20037;-84
2022/09/21 08:38:25;;;;;;;0.90;0.90;;;;;;;18.39;52.70;101385.06;5001295;28;20025;-83
2022/09/21 08:40:52;;;;;;;1.42;0.82;;;;;;;18.51;52.88;101414.53;4983465;28;20121;-83
2022/09/21 08:43:26;;;;;;;1.00;0.90;;;;;;;18.22;52.73;101357.19;4994202;28;20089;-80
2022/09/21 08:45:53;;;;;;;1.08;0.90;;;;;;;18.07;52.77;101337.34;5010152;28;20033;-83
2022/09/21 08:48:22;;;;;;;0.82;0.80;;;;;;;18.19;52.94;101350.06;5006504;28;20026;-83
2022/09/21 08:51:00;;;;;;;0.88;0.88;;;;;;;18.36;52.91;101381.44;4988449;28;20089;-83
2022/09/21 08:53:53;;;;;;;0.70;0.70;;;;;;;18.42;53.19;101395.75;5026850;28;20088;-83
2022/09/21 08:56:19;;;;;;;0.90;0.90;;;;;;;18.02;53.20;101323.09;5013149;28;20048;-82
2022/09/21 08:58:45;;;;;;;0.80;0.77;;;;;;;18.15;53.07;101334.06;5011959;28;20558;-83
2022/09/21 09:01:28;;;;;;;0.82;0.82;;;;;;;18.40;53.16;101372.75;5034723;28;20060;-83
2022/09/21 09:03:59;;;;;;;0.80;0.80;;;;;;;18.52;53.00;101397.84;5034741;28;20057;-84
2022/09/21 09:06:40;;;;;;;0.63;0.63;;;;;;;18.15;53.09;101332.31;5016407;28;20029;-85
2022/09/21 09:09:38;;;;;;;0.70;0.70;;;;;;;18.26;52.93;101336.19;5023115;28;20030;-83
2022/09/21 09:12:06;;;;;;;0.98;0.93;;;;;;;18.52;53.22;101375.78;5040844;28;20494;-83
2022/09/21 09:15:00;;;;;;;1.17;0.80;;;;;;;18.53;53.29;101377.56;5034937;28;20037;-85
2022/09/21 09:17:48;;;;;;;0.80;0.80;;;;;;;18.26;53.22;101335.28;5024137;28;20128;-84
2022/09/21 09:20:29;;;;;;;1.48;0.90;;;;;;;18.49;53.29;101368.63;4999310;28;20064;-84
2022/09/21 09:23:16;;;;;;;0.80;0.80;;;;;;;18.49;53.25;101368.63;5016793;28;20057;-83
2022/09/21 09:25:46;;;;;;;1.05;0.90;;;;;;;18.21;53.45;101313.13;5024949;28;20055;-87
2022/09/21 09:28:44;;;;;;;0.98;0.70;;;;;;;18.69;49.48;101357.78;5010370;28;20087;-84
2022/09/21 09:31:26;;;;;;;1.05;0.90;;;;;;;18.69;49.98;101355.16;4994954;28;20132;-86
2022/09/21 09:34:12;;;;;;;2.50;1.08;;;;;;;18.63;49.36;101352.31;5015868;28;20159;-87
2022/09/21 09:36:41;;;;;;;2.00;1.10;;;;;;;18.63;51.57;101358.50;5020665;28;20029;-86
2022/09/21 09:39:12;;;;;;;1.38;0.82;;;;;;;18.59;51.12;101347.78;5011019;28;20075;-85
2022/09/21 09:42:16;;;;;;;3.60;1.10;;;;;;;18.57;51.36;101347.72;5015767;28;20045;-85
2022/09/21 09:45:25;;;;;;;1.20;0.90;;;;;;;18.56;51.53;101352.97;5034090;28;20773;-85
2022/09/21 09:48:03;;;;;;;1.33;0.90;;;;;;;18.57;52.21;101355.66;5023682;28;20038;-85
2022/09/21 09:50:29;;;;;;;1.30;0.80;;;;;;;18.55;52.14;101353.81;5016445;28;20033;-86
2022/09/21 09:53:04;;;;;;;1.48;0.90;;;;;;;18.56;52.38;101361.78;5028251;28;20057;-84
2022/09/21 09:55:49;;;;;;;0.90;0.90;;;;;;;18.53;52.42;101356.41;5032156;28;20483;-86
2022/09/21 09:58:33;;;;;;;1.10;0.80;;;;;;;18.55;52.47;101353.81;5013836;28;20035;-86
2022/09/21 10:00:59;;;;;;;1.77;1.10;;;;;;;18.31;52.21;101304.63;5038345;28;20754;-87
2022/09/21 10:03:26;;;;;;;1.30;0.75;;;;;;;18.24;52.37;101292.03;5024664;28;20014;-88
2022/09/21 10:06:11;;;;;;;1.20;0.98;;;;;;;18.59;52.00;101347.78;5011846;28;20043;-84
2022/09/21 10:08:38;;;;;;;2.58;0.90;;;;;;;18.57;52.26;101341.53;5029178;28;20109;-84
2022/09/21 10:11:04;;;;;;;1.10;0.90;;;;;;;18.52;52.26;101331.72;5031686;28;20726;-85
2022/09/21 10:13:35;;;;;;;1.40;0.88;;;;;;;18.56;52.48;101334.44;5015347;28;20025;-84
2022/09/21 10:16:20;;;;;;;1.35;0.80;;;;;;;18.51;52.92;101332.56;5024825;28;20414;-85
2022/09/21 10:18:55;;;;;;;1.73;0.90;;;;;;;18.64;52.40;101339.13;5044451;28;20100;-84
2022/09/21 10:21:25;;;;;;;1.77;1.00;;;;;;;18.41;52.70;101295.22;5013722;28;20113;-85
2022/09/21 10:23:56;;;;;;;1.08;1.00;;;;;;;18.57;52.89;101328.31;5032694;28;20100;-85
2022/09/21 10:26:21;;;;;;;1.20;0.90;;;;;;;18.82;52.24;101328.22;5022517;28;20017;-85
2022/09/21 10:29:22;;;;;;;0.90;0.90;;;;;;;18.66;52.54;101321.53;5015189;28;20025;-85
2022/09/21 10:31:57;;;;;;;1.75;1.23;;;;;;;18.61;52.67;101322.28;4999206;28;20103;-85
2022/09/21 10:34:24;;;;;;;1.90;0.82;;;;;;;18.64;52.65;101319.72;5027516;28;20091;-83
2022/09/21 10:36:53;;;;;;;0.82;0.82;;;;;;;18.60;52.84;101317.81;5015036;28;20031;-84
2022/09/21 10:39:30;;;;;;;1.00;0.95;;;;;;;18.68;52.77;101317.19;5033169;28;20065;-84
2022/09/21 10:42:04;;;;;;;0.80;0.80;;;;;;;18.35;53.01;101268.56;5013053;28;20112;-85
2022/09/21 10:44:39;;;;;;;1.90;0.90;;;;;;;18.49;52.91;101298.97;5032786;28;20108;-84
2022/09/21 10:47:23;;;;;;;0.90;0.90;;;;;;;18.66;52.71;101316.25;5032717;28;20032;-84
2022/09/21 10:49:51;;;;;;;1.00;1.00;;;;;;;18.51;53.22;101299.94;5030665;28;20410;-84
2022/09/21 10:52:20;;;;;;;1.58;0.80;;;;;;;18.62;52.91;101313.47;5024497;28;20048;-83
2022/09/21 10:54:48;;;;;;;0.70;0.70;;;;;;;18.46;53.11;101283.03;5027718;28;20025;-83
2022/09/21 10:57:16;;;;;;;2.72;0.75;;;;;;;18.52;53.05;101299.09;5005852;28;20036;-83
2022/09/21 10:59:41;;;;;;;0.80;0.80;;;;;;;18.57;52.80;101288.66;5032524;28;20075;-84
2022/09/21 11:02:32;;;;;;;1.90;0.88;;;;;;;18.67;53.03;101320.72;5015405;28;20025;-84
2022/09/21 11:05:02;;;;;;;0.70;0.70;;;;;;;18.57;53.12;101302.75;5025665;28;20037;-83
2022/09/21 11:07:31;;;;;;;0.70;0.70;;;;;;;18.63;53.07;101321.47;5034496;28;20033;-84
2022/09/21 11:10:20;;;;;;;0.80;0.80;;;;;;;18.53;53.40;101295.59;5024183;28;20436;-84
2022/09/21 11:13:08;;;;;;;0.80;0.80;;;;;;;18.65;53.21;101313.59;5031541;28;20029;-86
2022/09/21 11:16:12;;;;;;;0.90;0.90;;;;;;;18.69;53.16;101319.00;5019925;28;20083;-85
2022/09/21 11:18:56;;;;;;;0.88;0.82;;;;;;;18.65;53.27;101313.59;4999106;28;20085;-85
2022/09/21 11:21:31;;;;;;;1.95;0.80;;;;;;;18.54;53.55;101302.66;5017370;28;20046;-86
2022/09/21 11:24:20;;;;;;;0.77;0.70;;;;;;;18.26;53.51;101241.00;5002592;28;20057;-86
2022/09/21 11:26:53;;;;;;;2.05;0.95;;;;;;;18.47;53.67;101292.75;5023410;28;20037;-86
2022/09/21 11:29:35;;;;;;;0.77;0.70;;;;;;;18.61;53.50;101307.28;4996341;28;20026;-85
2022/09/21 11:32:26;;;;;;;0.85;0.75;;;;;;;18.61;53.40;101303.75;5010728;28;20479;-86
2022/09/21 11:35:07;;;;;;;1.10;0.98;;;;;;;18.59;53.48;101302.81;5031564;28;20064;-86
2022/09/21 11:37:49;;;;;;;0.70;0.70;;;;;;;18.30;53.44;101242.00;5017646;28;20030;-87
2022/09/21 11:40:42;;;;;;;0.98;0.80;;;;;;;18.36;53.63;101259.81;5029194;28;20025;-84
2022/09/21 11:43:17;;;;;;;0.75;0.75;;;;;;;18.72;53.25;101295.25;5024287;28;20171;-86
2022/09/21 11:45:45;;;;;;;1.00;1.00;;;;;;;18.66;53.58;101287.16;5030513;28;20033;-87
2022/09/21 11:48:21;;;;;;;0.88;0.88;;;;;;;18.67;53.51;101296.91;5030048;28;20523;-88
2022/09/21 11:51:06;;;;;;;0.88;0.88;;;;;;;18.50;53.38;101250.53;5031708;28;20030;-87
2022/09/21 11:53:52;;;;;;;0.80;0.80;;;;;;;18.76;53.26;101293.63;5031727;28;20100;-88